Wetterdaten: Woche 07.06.10 - 13.06.10 (KW23)
Datum Zeit Temperatur Luftfeuchte Luftdruck Niederschlag Wind Richtung Sonnenschein Solar Taupunkt Windchill Windben
07.06.2010 00:00 16.7 C 94 % 1013.9 hPa 0.0 l/m 0.6 km/h (0 Bft) W-SW 0.00 h 0 W/m 15.8 C 16.7 C 2.4 km/h (1 Bft)
07.06.2010 01:00 16.6 C 94 % 1013.6 hPa 0.0 l/m 0.3 km/h (0 Bft) S-SO 0.00 h 0 W/m 15.6 C 16.6 C 1.4 km/h (1 Bft)
07.06.2010 02:00 16.6 C 94 % 1013.5 hPa 0.0 l/m 0.9 km/h (0 Bft) S-SO 0.00 h 0 W/m 15.7 C 16.6 C 2.9 km/h (1 Bft)
07.06.2010 03:00 16.8 C 93 % 1013.4 hPa 0.0 l/m 1.2 km/h (1 Bft) SO 0.00 h 0 W/m 15.6 C 16.8 C 3.0 km/h (1 Bft)
07.06.2010 04:00 16.6 C 93 % 1013.5 hPa 0.0 l/m 1.4 km/h (1 Bft) W-SW 0.00 h 0 W/m 15.5 C 16.6 C 3.3 km/h (1 Bft)
07.06.2010 05:00 16.0 C 95 % 1013.3 hPa 0.0 l/m 3.1 km/h (1 Bft) W-SW 0.00 h 5 W/m 15.2 C 16.0 C 5.8 km/h (2 Bft)
07.06.2010 06:00 16.0 C 94 % 1013.8 hPa 0.0 l/m 6.5 km/h (2 Bft) W 0.00 h 23 W/m 15.1 C 16.0 C 10.5 km/h (2 Bft)
07.06.2010 07:00 16.2 C 92 % 1014.5 hPa 0.0 l/m 6.7 km/h (2 Bft) W 0.00 h 102 W/m 14.8 C 16.2 C 10.9 km/h (2 Bft)
07.06.2010 08:00 16.8 C 88 % 1014.6 hPa 0.0 l/m 8.1 km/h (2 Bft) W 0.22 h 230 W/m 14.8 C 16.8 C 13.4 km/h (3 Bft)
07.06.2010 09:00 17.9 C 84 % 1014.7 hPa 0.0 l/m 7.1 km/h (2 Bft) W 0.50 h 421 W/m 15.1 C 17.9 C 11.5 km/h (2 Bft)
07.06.2010 10:00 18.4 C 79 % 1014.5 hPa 0.0 l/m 9.6 km/h (2 Bft) W 0.23 h 349 W/m 14.7 C 18.4 C 15.2 km/h (3 Bft)
07.06.2010 11:00 18.7 C 75 % 1014.1 hPa 0.0 l/m 10.0 km/h (2 Bft) W-NW 0.03 h 386 W/m 14.2 C 18.7 C 15.9 km/h (3 Bft)
07.06.2010 12:00 20.4 C 70 % 1013.8 hPa 0.0 l/m 7.4 km/h (2 Bft) W 0.85 h 773 W/m 14.7 C 20.4 C 11.6 km/h (2 Bft)
07.06.2010 13:00 21.5 C 65 % 1013.2 hPa 0.0 l/m 10.4 km/h (2 Bft) W 0.93 h 853 W/m 14.5 C 21.5 C 16.7 km/h (3 Bft)
07.06.2010 14:00 21.7 C 63 % 1012.6 hPa 0.0 l/m 10.5 km/h (2 Bft) W 0.87 h 747 W/m 14.3 C 21.7 C 16.3 km/h (3 Bft)
07.06.2010 15:00 23.1 C 60 % 1011.9 hPa 0.0 l/m 6.9 km/h (2 Bft) W-SW 1.00 h 772 W/m 15.0 C 23.1 C 11.1 km/h (2 Bft)
07.06.2010 16:00 24.0 C 57 % 1011.3 hPa 0.0 l/m 6.4 km/h (2 Bft) W-SW 1.00 h 659 W/m 15.0 C 24.0 C 10.2 km/h (2 Bft)
07.06.2010 17:00 23.2 C 58 % 1011.0 hPa 0.0 l/m 6.2 km/h (2 Bft) W-SW 0.55 h 416 W/m 14.5 C 23.2 C 10.3 km/h (2 Bft)
07.06.2010 18:00 21.8 C 63 % 1010.7 hPa 0.0 l/m 4.2 km/h (1 Bft) W-SW 0.13 h 213 W/m 14.3 C 21.8 C 7.2 km/h (2 Bft)
07.06.2010 19:00 21.9 C 61 % 1010.6 hPa 0.0 l/m 4.5 km/h (1 Bft) W 0.68 h 183 W/m 13.9 C 21.9 C 7.3 km/h (2 Bft)
07.06.2010 20:00 20.7 C 65 % 1010.6 hPa 0.0 l/m 1.4 km/h (1 Bft) W-SW 0.42 h 66 W/m 13.8 C 20.7 C 3.5 km/h (1 Bft)
07.06.2010 21:00 18.7 C 71 % 1010.7 hPa 0.0 l/m 2.2 km/h (1 Bft) O-SO 0.00 h 8 W/m 13.3 C 18.7 C 3.5 km/h (1 Bft)
07.06.2010 22:00 17.1 C 79 % 1011.0 hPa 0.0 l/m 2.2 km/h (1 Bft) O-SO 0.00 h 0 W/m 13.5 C 17.1 C 3.9 km/h (1 Bft)
07.06.2010 23:00 15.7 C 86 % 1010.9 hPa 0.0 l/m 1.6 km/h (1 Bft) O-SO 0.00 h 0 W/m 13.3 C 15.7 C 2.4 km/h (1 Bft)
08.06.2010 00:00 14.8 C 90 % 1010.5 hPa 0.0 l/m 1.0 km/h (0 Bft) O-SO 0.00 h 0 W/m 13.1 C 14.8 C 1.7 km/h (1 Bft)
08.06.2010 01:00 14.0 C 92 % 1010.1 hPa 0.0 l/m 0.0 km/h (0 Bft) N 0.00 h 0 W/m 12.7 C 14.0 C 0.2 km/h (0 Bft)
08.06.2010 02:00 13.3 C 93 % 1009.5 hPa 0.0 l/m 0.4 km/h (0 Bft) O-SO 0.00 h 0 W/m 12.2 C 13.3 C 0.8 km/h (0 Bft)
08.06.2010 03:00 12.7 C 94 % 1009.1 hPa 0.0 l/m 0.1 km/h (0 Bft) N 0.00 h 0 W/m 11.8 C 12.7 C 0.3 km/h (0 Bft)
08.06.2010 04:00 12.4 C 94 % 1009.0 hPa 0.0 l/m 0.2 km/h (0 Bft) O-SO 0.00 h 0 W/m 11.5 C 12.4 C 0.6 km/h (0 Bft)
08.06.2010 05:00 12.1 C 95 % 1009.3 hPa 0.0 l/m 0.3 km/h (0 Bft) O-SO 0.03 h 11 W/m 11.2 C 12.1 C 0.9 km/h (0 Bft)
08.06.2010 06:00 12.4 C 95 % 1009.4 hPa 0.0 l/m 0.1 km/h (0 Bft) O-SO 0.17 h 64 W/m 11.6 C 12.4 C 0.3 km/h (0 Bft)
08.06.2010 07:00 13.5 C 93 % 1009.3 hPa 0.0 l/m 0.3 km/h (0 Bft) O-SO 0.13 h 128 W/m 12.4 C 13.5 C 1.2 km/h (1 Bft)
08.06.2010 08:00 15.0 C 91 % 1009.2 hPa 0.0 l/m 1.0 km/h (0 Bft) O-SO 0.35 h 216 W/m 13.6 C 15.0 C 2.3 km/h (1 Bft)
08.06.2010 09:00 17.6 C 86 % 1008.8 hPa 0.0 l/m 1.5 km/h (1 Bft) W 0.65 h 402 W/m 15.3 C 17.6 C 3.3 km/h (1 Bft)
08.06.2010 10:00 19.8 C 81 % 1008.5 hPa 0.0 l/m 1.7 km/h (1 Bft) W 1.00 h 609 W/m 16.4 C 19.8 C 3.6 km/h (1 Bft)
08.06.2010 11:00 22.4 C 72 % 1007.7 hPa 0.0 l/m 2.3 km/h (1 Bft) S-SO 0.95 h 749 W/m 17.0 C 22.4 C 5.1 km/h (1 Bft)
08.06.2010 12:00 23.8 C 67 % 1007.3 hPa 0.0 l/m 2.9 km/h (1 Bft) O-SO 1.00 h 859 W/m 17.2 C 23.8 C 5.7 km/h (1 Bft)
08.06.2010 13:00 25.4 C 60 % 1006.6 hPa 0.0 l/m 3.1 km/h (1 Bft) SO 1.00 h 891 W/m 17.0 C 25.4 C 6.2 km/h (2 Bft)
08.06.2010 14:00 26.0 C 58 % 1006.1 hPa 0.0 l/m 2.6 km/h (1 Bft) W 0.55 h 608 W/m 16.9 C 26.0 C 5.3 km/h (1 Bft)
08.06.2010 15:00 19.8 C 84 % 1007.4 hPa 9.8 l/m 7.6 km/h (2 Bft) W 0.05 h 269 W/m 16.8 C 19.8 C 12.2 km/h (2 Bft)
08.06.2010 16:00 20.5 C 88 % 1007.2 hPa 0.0 l/m 1.7 km/h (1 Bft) N-NW 0.32 h 401 W/m 18.5 C 20.5 C 3.4 km/h (1 Bft)
08.06.2010 17:00 21.1 C 88 % 1006.6 hPa 0.0 l/m 1.4 km/h (1 Bft) W-NW 0.00 h 225 W/m 19.1 C 21.1 C 3.3 km/h (1 Bft)
08.06.2010 18:00 20.8 C 83 % 1006.8 hPa 0.2 l/m 0.5 km/h (0 Bft) W-NW 0.00 h 78 W/m 17.9 C 20.8 C 1.4 km/h (1 Bft)
08.06.2010 19:00 20.0 C 91 % 1006.6 hPa 0.0 l/m 0.4 km/h (0 Bft) S-SO 0.00 h 42 W/m 18.4 C 20.0 C 1.0 km/h (0 Bft)
08.06.2010 20:00 19.3 C 92 % 1006.8 hPa 0.0 l/m 0.8 km/h (0 Bft) O-SO 0.00 h 20 W/m 17.9 C 19.3 C 1.5 km/h (1 Bft)
08.06.2010 21:00 18.4 C 94 % 1006.8 hPa 0.0 l/m 0.0 km/h (0 Bft) N 0.00 h 8 W/m 17.3 C 18.4 C 0.1 km/h (0 Bft)
08.06.2010 22:00 17.6 C 94 % 1007.1 hPa 0.0 l/m 0.6 km/h (0 Bft) O-SO 0.00 h 0 W/m 16.7 C 17.6 C 1.2 km/h (1 Bft)
08.06.2010 23:00 17.0 C 96 % 1007.0 hPa 0.0 l/m 0.1 km/h (0 Bft) O-SO 0.00 h 0 W/m 16.3 C 17.0 C 0.3 km/h (0 Bft)
09.06.2010 00:00 16.7 C 96 % 1006.5 hPa 0.0 l/m 0.3 km/h (0 Bft) O-SO 0.00 h 0 W/m 16.1 C 16.7 C 0.9 km/h (0 Bft)
09.06.2010 01:00 16.5 C 97 % 1006.3 hPa 0.0 l/m 0.4 km/h (0 Bft) O-SO 0.00 h 0 W/m 16.0 C 16.5 C 1.1 km/h (0 Bft)
09.06.2010 02:00 16.4 C 97 % 1006.2 hPa 0.0 l/m 0.2 km/h (0 Bft) O-SO 0.00 h 0 W/m 16.0 C 16.4 C 0.6 km/h (0 Bft)
09.06.2010 03:00 16.4 C 97 % 1006.4 hPa 0.0 l/m 0.1 km/h (0 Bft) O-SO 0.00 h 0 W/m 15.9 C 16.4 C 0.3 km/h (0 Bft)
09.06.2010 04:00 16.2 C 97 % 1006.1 hPa 0.0 l/m 0.0 km/h (0 Bft) O-SO 0.00 h 0 W/m 15.8 C 16.2 C 0.1 km/h (0 Bft)
09.06.2010 05:00 15.8 C 97 % 1005.9 hPa 0.0 l/m 0.5 km/h (0 Bft) O-SO 0.00 h 11 W/m 15.3 C 15.8 C 1.0 km/h (0 Bft)
09.06.2010 06:00 15.7 C 97 % 1006.1 hPa 0.0 l/m 0.4 km/h (0 Bft) O-SO 0.00 h 27 W/m 15.3 C 15.7 C 0.9 km/h (0 Bft)
09.06.2010 07:00 15.7 C 97 % 1006.1 hPa 0.0 l/m 0.2 km/h (0 Bft) O-SO 0.00 h 67 W/m 15.3 C 15.7 C 0.7 km/h (0 Bft)
09.06.2010 08:00 16.4 C 97 % 1005.9 hPa 0.0 l/m 0.5 km/h (0 Bft) W-SW 0.17 h 197 W/m 15.9 C 16.4 C 1.8 km/h (1 Bft)
09.06.2010 09:00 18.4 C 92 % 1005.7 hPa 0.0 l/m 0.4 km/h (0 Bft) W-SW 0.77 h 444 W/m 17.1 C 18.4 C 1.7 km/h (1 Bft)
09.06.2010 10:00 21.7 C 81 % 1005.0 hPa 0.0 l/m 1.2 km/h (1 Bft) W-SW 1.00 h 671 W/m 18.2 C 21.7 C 2.9 km/h (1 Bft)
09.06.2010 11:00 23.9 C 73 % 1004.4 hPa 0.0 l/m 2.2 km/h (1 Bft) O-SO 1.00 h 732 W/m 18.7 C 23.9 C 5.0 km/h (1 Bft)
09.06.2010 12:00 25.3 C 67 % 1003.9 hPa 0.0 l/m 3.2 km/h (1 Bft) O-SO 1.00 h 802 W/m 18.7 C 25.3 C 6.0 km/h (2 Bft)
09.06.2010 13:00 26.4 C 62 % 1003.5 hPa 0.0 l/m 2.7 km/h (1 Bft) O-SO 0.97 h 760 W/m 18.5 C 26.4 C 5.3 km/h (1 Bft)
09.06.2010 14:00 27.4 C 53 % 1002.8 hPa 0.0 l/m 3.1 km/h (1 Bft) O-SO 0.88 h 660 W/m 17.0 C 27.4 C 5.8 km/h (2 Bft)
09.06.2010 15:00 27.6 C 53 % 1002.3 hPa 0.0 l/m 2.5 km/h (1 Bft) O-SO 0.45 h 500 W/m 17.2 C 27.6 C 4.6 km/h (1 Bft)
09.06.2010 16:00 28.5 C 54 % 1001.9 hPa 0.0 l/m 1.1 km/h (1 Bft) O-SO 0.83 h 520 W/m 18.1 C 28.5 C 3.1 km/h (1 Bft)
09.06.2010 17:00 29.3 C 47 % 1001.2 hPa 0.0 l/m 5.3 km/h (1 Bft) O-SO 0.95 h 495 W/m 16.7 C 29.3 C 9.3 km/h (2 Bft)
09.06.2010 18:00 27.4 C 39 % 1001.1 hPa 0.0 l/m 7.1 km/h (2 Bft) SO 0.13 h 162 W/m 12.1 C 27.4 C 11.2 km/h (2 Bft)
09.06.2010 19:00 25.8 C 41 % 1000.9 hPa 0.0 l/m 5.1 km/h (1 Bft) SO 0.00 h 71 W/m 11.3 C 25.8 C 7.9 km/h (2 Bft)
09.06.2010 20:00 24.3 C 47 % 1001.4 hPa 0.0 l/m 0.1 km/h (0 Bft) O 0.00 h 32 W/m 12.2 C 24.3 C 0.9 km/h (0 Bft)
09.06.2010 21:00 22.1 C 59 % 1002.0 hPa 0.0 l/m 0.2 km/h (0 Bft) O 0.05 h 11 W/m 13.6 C 22.1 C 1.0 km/h (0 Bft)
09.06.2010 22:00 20.0 C 65 % 1002.9 hPa 0.0 l/m 0.8 km/h (0 Bft) O-SO 0.00 h 0 W/m 13.3 C 20.0 C 1.8 km/h (1 Bft)
09.06.2010 23:00 19.7 C 71 % 1003.3 hPa 0.0 l/m 1.2 km/h (1 Bft) N-NO 0.00 h 0 W/m 14.3 C 19.7 C 2.7 km/h (1 Bft)
10.06.2010 00:00 19.2 C 78 % 1003.2 hPa 0.0 l/m 1.3 km/h (1 Bft) N 0.00 h 0 W/m 15.2 C 19.2 C 3.1 km/h (1 Bft)
10.06.2010 01:00 18.8 C 81 % 1003.0 hPa 0.0 l/m 1.3 km/h (1 Bft) O-SO 0.00 h 0 W/m 15.4 C 18.8 C 2.7 km/h (1 Bft)
10.06.2010 02:00 17.9 C 83 % 1002.9 hPa 0.0 l/m 1.2 km/h (1 Bft) N 0.00 h 0 W/m 15.0 C 17.9 C 2.7 km/h (1 Bft)
10.06.2010 03:00 17.5 C 85 % 1002.5 hPa 0.0 l/m 1.3 km/h (1 Bft) N 0.00 h 0 W/m 15.0 C 17.5 C 2.7 km/h (1 Bft)
10.06.2010 04:00 17.2 C 88 % 1002.6 hPa 0.0 l/m 3.8 km/h (1 Bft) N-NW 0.00 h 0 W/m 15.1 C 17.2 C 6.7 km/h (2 Bft)
10.06.2010 05:00 16.8 C 89 % 1002.5 hPa 0.0 l/m 4.1 km/h (1 Bft) N-NW 0.00 h 8 W/m 15.0 C 16.8 C 7.0 km/h (2 Bft)
10.06.2010 06:00 16.8 C 90 % 1002.9 hPa 0.0 l/m 3.8 km/h (1 Bft) N-NW 0.00 h 26 W/m 15.1 C 16.8 C 6.6 km/h (2 Bft)
10.06.2010 07:00 16.9 C 90 % 1002.9 hPa 0.0 l/m 0.9 km/h (0 Bft) W-NW 0.03 h 75 W/m 15.3 C 16.9 C 2.2 km/h (1 Bft)
10.06.2010 08:00 18.8 C 84 % 1003.1 hPa 0.0 l/m 3.6 km/h (1 Bft) NW 0.97 h 343 W/m 16.1 C 18.8 C 6.1 km/h (2 Bft)
10.06.2010 09:00 21.2 C 76 % 1003.1 hPa 0.0 l/m 3.1 km/h (1 Bft) N-NW 1.00 h 512 W/m 16.9 C 21.2 C 5.1 km/h (1 Bft)
10.06.2010 10:00 23.8 C 68 % 1002.9 hPa 0.0 l/m 2.6 km/h (1 Bft) W-NW 1.00 h 672 W/m 17.5 C 23.8 C 4.5 km/h (1 Bft)
10.06.2010 11:00 26.4 C 60 % 1002.5 hPa 0.0 l/m 3.3 km/h (1 Bft) W 0.93 h 741 W/m 17.9 C 26.4 C 5.4 km/h (1 Bft)
10.06.2010 12:00 28.5 C 56 % 1002.0 hPa 0.0 l/m 3.0 km/h (1 Bft) N-NW 0.88 h 779 W/m 18.8 C 28.5 C 5.4 km/h (1 Bft)
10.06.2010 13:00 30.2 C 41 % 1001.8 hPa 0.0 l/m 8.7 km/h (2 Bft) SO 0.93 h 776 W/m 15.5 C 30.2 C 14.3 km/h (3 Bft)
10.06.2010 14:00 30.7 C 36 % 1001.9 hPa 0.0 l/m 11.6 km/h (2 Bft) SO 0.83 h 798 W/m 13.9 C 30.7 C 18.8 km/h (3 Bft)
10.06.2010 15:00 31.1 C 35 % 1001.6 hPa 0.0 l/m 12.7 km/h (3 Bft) SO 1.00 h 779 W/m 13.6 C 31.1 C 19.8 km/h (4 Bft)
10.06.2010 16:00 31.3 C 35 % 1001.3 hPa 0.0 l/m 9.0 km/h (2 Bft) SO 1.00 h 656 W/m 13.8 C 31.3 C 14.9 km/h (3 Bft)
10.06.2010 17:00 31.0 C 32 % 1001.1 hPa 0.0 l/m 7.9 km/h (2 Bft) SO 1.00 h 509 W/m 12.4 C 31.0 C 13.2 km/h (3 Bft)
10.06.2010 18:00 30.2 C 34 % 1001.0 hPa 0.0 l/m 5.7 km/h (1 Bft) SO 1.00 h 346 W/m 12.6 C 30.2 C 10.2 km/h (2 Bft)
10.06.2010 19:00 29.1 C 38 % 1001.5 hPa 0.0 l/m 2.4 km/h (1 Bft) O-SO 1.00 h 189 W/m 13.3 C 29.1 C 4.8 km/h (1 Bft)
10.06.2010 20:00 26.7 C 42 % 1001.8 hPa 0.0 l/m 2.9 km/h (1 Bft) O-SO 0.17 h 39 W/m 12.7 C 26.7 C 4.8 km/h (1 Bft)
10.06.2010 21:00 23.8 C 51 % 1002.3 hPa 0.0 l/m 3.5 km/h (1 Bft) O-SO 0.00 h 6 W/m 12.9 C 23.8 C 5.0 km/h (1 Bft)
10.06.2010 22:00 21.2 C 63 % 1003.1 hPa 0.0 l/m 1.8 km/h (1 Bft) O-SO 0.00 h 0 W/m 13.7 C 21.2 C 3.3 km/h (1 Bft)
10.06.2010 23:00 22.0 C 67 % 1003.0 hPa 0.0 l/m 2.4 km/h (1 Bft) NW 0.00 h 0 W/m 15.6 C 22.0 C 5.3 km/h (1 Bft)
11.06.2010 00:00 21.7 C 71 % 1003.5 hPa 0.0 l/m 2.6 km/h (1 Bft) N-NW 0.00 h 0 W/m 16.3 C 21.7 C 5.1 km/h (1 Bft)
11.06.2010 01:00 20.2 C 77 % 1004.1 hPa 0.0 l/m 1.4 km/h (1 Bft) N 0.00 h 0 W/m 16.1 C 20.2 C 3.5 km/h (1 Bft)
11.06.2010 02:00 18.9 C 81 % 1004.9 hPa 0.0 l/m 2.1 km/h (1 Bft) NW 0.00 h 0 W/m 15.7 C 18.9 C 4.5 km/h (1 Bft)
11.06.2010 03:00 18.2 C 81 % 1005.5 hPa 0.0 l/m 2.0 km/h (1 Bft) W-NW 0.00 h 0 W/m 14.9 C 18.2 C 4.5 km/h (1 Bft)
11.06.2010 04:00 17.5 C 83 % 1006.0 hPa 0.0 l/m 0.7 km/h (0 Bft) SW 0.00 h 0 W/m 14.6 C 17.5 C 2.1 km/h (1 Bft)
11.06.2010 05:00 17.4 C 84 % 1006.7 hPa 0.0 l/m 1.6 km/h (1 Bft) W 0.18 h 17 W/m 14.6 C 17.4 C 3.2 km/h (1 Bft)
11.06.2010 06:00 17.7 C 84 % 1007.1 hPa 0.0 l/m 1.6 km/h (1 Bft) O-SO 0.00 h 49 W/m 15.0 C 17.7 C 2.7 km/h (1 Bft)
11.06.2010 07:00 18.2 C 84 % 1007.9 hPa 0.0 l/m 1.5 km/h (1 Bft) NW 0.05 h 82 W/m 15.4 C 18.2 C 3.1 km/h (1 Bft)
11.06.2010 08:00 19.1 C 82 % 1008.5 hPa 0.0 l/m 0.3 km/h (0 Bft) N 0.05 h 172 W/m 16.0 C 19.1 C 1.2 km/h (1 Bft)
11.06.2010 09:00 19.8 C 82 % 1009.0 hPa 0.0 l/m 1.6 km/h (1 Bft) N-NW 0.00 h 174 W/m 16.5 C 19.8 C 3.2 km/h (1 Bft)
11.06.2010 10:00 20.3 C 81 % 1009.4 hPa 0.0 l/m 1.0 km/h (0 Bft) NW 0.00 h 243 W/m 17.0 C 20.3 C 2.5 km/h (1 Bft)
11.06.2010 11:00 22.1 C 74 % 1009.0 hPa 0.0 l/m 1.3 km/h (1 Bft) N-NW 0.25 h 474 W/m 17.3 C 22.1 C 2.7 km/h (1 Bft)
11.06.2010 12:00 24.6 C 62 % 1008.5 hPa 0.0 l/m 3.1 km/h (1 Bft) N-NW 0.97 h 838 W/m 16.8 C 24.6 C 5.7 km/h (1 Bft)
11.06.2010 13:00 25.4 C 60 % 1008.3 hPa 0.0 l/m 3.9 km/h (1 Bft) W-NW 0.93 h 850 W/m 17.0 C 25.4 C 6.5 km/h (2 Bft)
11.06.2010 14:00 26.7 C 56 % 1008.0 hPa 0.0 l/m 3.4 km/h (1 Bft) W 0.87 h 838 W/m 17.3 C 26.7 C 6.1 km/h (2 Bft)
11.06.2010 15:00 26.5 C 55 % 1007.9 hPa 0.0 l/m 2.1 km/h (1 Bft) NW 0.62 h 583 W/m 16.6 C 26.5 C 4.4 km/h (1 Bft)
11.06.2010 16:00 27.3 C 53 % 1007.8 hPa 0.0 l/m 1.6 km/h (1 Bft) W 1.00 h 658 W/m 16.9 C 27.3 C 3.8 km/h (1 Bft)
11.06.2010 17:00 28.2 C 52 % 1007.2 hPa 0.0 l/m 3.7 km/h (1 Bft) W 0.95 h 483 W/m 17.4 C 28.2 C 6.3 km/h (2 Bft)
11.06.2010 18:00 26.8 C 56 % 1007.3 hPa 0.0 l/m 8.3 km/h (2 Bft) W 0.98 h 343 W/m 17.4 C 26.8 C 13.0 km/h (3 Bft)
11.06.2010 19:00 25.3 C 62 % 1007.5 hPa 0.0 l/m 4.5 km/h (1 Bft) W-NW 0.97 h 183 W/m 17.5 C 25.3 C 7.3 km/h (2 Bft)
11.06.2010 20:00 23.2 C 66 % 1007.5 hPa 0.0 l/m 2.8 km/h (1 Bft) W 0.12 h 54 W/m 16.4 C 23.2 C 5.8 km/h (2 Bft)
11.06.2010 21:00 21.8 C 68 % 1007.9 hPa 0.0 l/m 2.0 km/h (1 Bft) W-NW 0.00 h 5 W/m 15.6 C 21.8 C 4.2 km/h (1 Bft)
11.06.2010 22:00 21.6 C 66 % 1008.4 hPa 0.0 l/m 2.0 km/h (1 Bft) NW 0.00 h 0 W/m 14.9 C 21.6 C 4.1 km/h (1 Bft)
11.06.2010 23:00 21.4 C 59 % 1008.2 hPa 0.0 l/m 1.5 km/h (1 Bft) N 0.00 h 0 W/m 13.1 C 21.4 C 3.4 km/h (1 Bft)
12.06.2010 00:00 20.6 C 63 % 1008.6 hPa 0.0 l/m 10.2 km/h (2 Bft) W-NW 0.00 h 0 W/m 13.4 C 20.6 C 16.8 km/h (3 Bft)
12.06.2010 01:00 19.1 C 72 % 1008.7 hPa 0.0 l/m 4.6 km/h (1 Bft) W-NW 0.00 h 0 W/m 14.0 C 19.1 C 8.0 km/h (2 Bft)
12.06.2010 02:00 18.6 C 73 % 1008.7 hPa 0.0 l/m 3.5 km/h (1 Bft) NW 0.00 h 0 W/m 13.8 C 18.6 C 6.9 km/h (2 Bft)
12.06.2010 03:00 17.9 C 74 % 1009.0 hPa 0.0 l/m 1.8 km/h (1 Bft) W-NW 0.00 h 0 W/m 13.1 C 17.9 C 4.3 km/h (1 Bft)
12.06.2010 04:00 17.5 C 76 % 1009.4 hPa 0.0 l/m 8.8 km/h (2 Bft) W-NW 0.00 h 0 W/m 13.2 C 17.5 C 14.9 km/h (3 Bft)
12.06.2010 05:00 17.1 C 78 % 1009.9 hPa 0.0 l/m 10.5 km/h (2 Bft) W 0.00 h 5 W/m 13.2 C 17.1 C 17.9 km/h (3 Bft)
12.06.2010 06:00 17.0 C 77 % 1010.3 hPa 0.0 l/m 10.1 km/h (2 Bft) W 0.00 h 15 W/m 13.1 C 17.0 C 16.3 km/h (3 Bft)
12.06.2010 07:00 16.9 C 79 % 1010.5 hPa 0.0 l/m 3.8 km/h (1 Bft) W-SW 0.00 h 20 W/m 13.3 C 16.9 C 7.1 km/h (2 Bft)
12.06.2010 08:00 17.1 C 80 % 1010.9 hPa 0.0 l/m 2.5 km/h (1 Bft) W-SW 0.00 h 72 W/m 13.6 C 17.1 C 5.3 km/h (1 Bft)
12.06.2010 09:00 17.4 C 79 % 1011.1 hPa 0.0 l/m 1.2 km/h (1 Bft) W-SW 0.00 h 99 W/m 13.8 C 17.4 C 3.1 km/h (1 Bft)
12.06.2010 10:00 18.2 C 79 % 1011.1 hPa 0.0 l/m 0.5 km/h (0 Bft) S-SW 0.00 h 168 W/m 14.6 C 18.2 C 2.1 km/h (1 Bft)
12.06.2010 11:00 18.7 C 80 % 1011.4 hPa 0.0 l/m 0.7 km/h (0 Bft) S 0.00 h 183 W/m 15.2 C 18.7 C 2.3 km/h (1 Bft)
12.06.2010 12:00 19.6 C 77 % 1011.5 hPa 0.0 l/m 1.8 km/h (1 Bft) S-SO 0.00 h 302 W/m 15.4 C 19.6 C 4.3 km/h (1 Bft)
12.06.2010 13:00 20.0 C 73 % 1011.4 hPa 0.0 l/m 3.9 km/h (1 Bft) S-SO 0.02 h 366 W/m 15.0 C 20.0 C 8.1 km/h (2 Bft)
12.06.2010 14:00 21.2 C 71 % 1011.0 hPa 0.0 l/m 1.9 km/h (1 Bft) W-SW 0.43 h 464 W/m 15.7 C 21.2 C 4.3 km/h (1 Bft)
12.06.2010 15:00 22.0 C 68 % 1010.7 hPa 0.0 l/m 3.1 km/h (1 Bft) W 0.38 h 465 W/m 15.7 C 22.0 C 5.5 km/h (1 Bft)
12.06.2010 16:00 21.8 C 66 % 1011.0 hPa 0.0 l/m 4.5 km/h (1 Bft) W-NW 0.00 h 310 W/m 15.2 C 21.8 C 7.1 km/h (2 Bft)
12.06.2010 17:00 22.3 C 65 % 1011.0 hPa 0.0 l/m 5.2 km/h (1 Bft) W-NW 0.45 h 386 W/m 15.3 C 22.3 C 8.1 km/h (2 Bft)
12.06.2010 18:00 22.2 C 65 % 1011.0 hPa 0.0 l/m 4.1 km/h (1 Bft) W-SW 0.52 h 261 W/m 15.4 C 22.2 C 7.0 km/h (2 Bft)
12.06.2010 19:00 21.6 C 68 % 1011.0 hPa 0.0 l/m 3.1 km/h (1 Bft) W-SW 1.00 h 186 W/m 15.4 C 21.6 C 5.8 km/h (2 Bft)
12.06.2010 20:00 20.9 C 69 % 1011.2 hPa 0.0 l/m 2.4 km/h (1 Bft) W-SW 0.57 h 74 W/m 15.0 C 20.9 C 4.6 km/h (1 Bft)
12.06.2010 21:00 20.3 C 72 % 1011.5 hPa 0.0 l/m 0.1 km/h (0 Bft) W-SW 0.22 h 17 W/m 15.1 C 20.3 C 0.8 km/h (0 Bft)
12.06.2010 22:00 19.5 C 77 % 1012.2 hPa 0.0 l/m 1.7 km/h (1 Bft) O 0.00 h 0 W/m 15.3 C 19.5 C 2.9 km/h (1 Bft)
12.06.2010 23:00 19.1 C 80 % 1012.3 hPa 0.0 l/m 0.0 km/h (0 Bft) N 0.00 h 0 W/m 15.4 C 19.1 C 0.4 km/h (0 Bft)
13.06.2010 00:00 18.7 C 81 % 1012.3 hPa 0.0 l/m 0.6 km/h (0 Bft) O 0.00 h 0 W/m 15.4 C 18.7 C 1.2 km/h (1 Bft)
13.06.2010 01:00 18.4 C 83 % 1012.2 hPa 0.0 l/m 0.2 km/h (0 Bft) O 0.00 h 0 W/m 15.5 C 18.4 C 1.0 km/h (0 Bft)
13.06.2010 02:00 18.1 C 86 % 1011.8 hPa 0.0 l/m 0.1 km/h (0 Bft) O 0.00 h 0 W/m 15.7 C 18.1 C 0.3 km/h (0 Bft)
13.06.2010 03:00 17.8 C 88 % 1012.0 hPa 0.0 l/m 0.0 km/h (0 Bft) N 0.00 h 0 W/m 15.7 C 17.8 C 0.0 km/h (0 Bft)
13.06.2010 04:00 17.4 C 88 % 1012.1 hPa 0.0 l/m 1.3 km/h (1 Bft) O 0.00 h 0 W/m 15.4 C 17.4 C 2.6 km/h (1 Bft)
13.06.2010 05:00 16.8 C 91 % 1012.1 hPa 0.4 l/m 0.2 km/h (0 Bft) N 0.00 h 0 W/m 15.3 C 16.8 C 1.0 km/h (0 Bft)
13.06.2010 06:00 16.4 C 94 % 1012.7 hPa 1.2 l/m 0.2 km/h (0 Bft) NW 0.00 h 16 W/m 15.4 C 16.4 C 0.7 km/h (0 Bft)
13.06.2010 07:00 16.3 C 95 % 1012.8 hPa 0.0 l/m 1.1 km/h (0 Bft) N-NW 0.00 h 59 W/m 15.5 C 16.3 C 2.5 km/h (1 Bft)
13.06.2010 08:00 16.7 C 95 % 1012.8 hPa 0.0 l/m 1.5 km/h (1 Bft) N-NW 0.00 h 140 W/m 15.9 C 16.7 C 3.3 km/h (1 Bft)
13.06.2010 09:00 16.5 C 94 % 1012.9 hPa 0.2 l/m 1.6 km/h (1 Bft) N-NW 0.00 h 67 W/m 15.5 C 16.5 C 3.2 km/h (1 Bft)
13.06.2010 10:00 16.8 C 94 % 1012.4 hPa 0.2 l/m 3.2 km/h (1 Bft) N-NW 0.23 h 322 W/m 15.8 C 16.8 C 5.5 km/h (1 Bft)
13.06.2010 11:00 17.5 C 92 % 1012.7 hPa 0.0 l/m 5.5 km/h (1 Bft) N-NW 0.00 h 252 W/m 16.2 C 17.5 C 8.4 km/h (2 Bft)
13.06.2010 12:00 18.9 C 88 % 1012.4 hPa 0.0 l/m 4.0 km/h (1 Bft) N-NW 0.25 h 463 W/m 16.9 C 18.9 C 6.5 km/h (2 Bft)
13.06.2010 13:00 20.4 C 81 % 1011.7 hPa 0.0 l/m 3.0 km/h (1 Bft) N-NW 0.43 h 578 W/m 16.9 C 20.4 C 5.1 km/h (1 Bft)
13.06.2010 14:00 19.3 C 83 % 1011.6 hPa 0.0 l/m 3.5 km/h (1 Bft) O-SO 0.00 h 161 W/m 16.3 C 19.3 C 5.7 km/h (1 Bft)
13.06.2010 15:00 18.4 C 87 % 1011.5 hPa 0.0 l/m 3.3 km/h (1 Bft) SO 0.00 h 149 W/m 16.1 C 18.4 C 5.9 km/h (2 Bft)
13.06.2010 16:00 18.7 C 86 % 1011.3 hPa 0.6 l/m 1.9 km/h (1 Bft) O-SO 0.00 h 158 W/m 16.2 C 18.7 C 4.4 km/h (1 Bft)
13.06.2010 17:00 17.0 C 93 % 1011.5 hPa 2.2 l/m 2.3 km/h (1 Bft) N-NW 0.00 h 49 W/m 15.8 C 17.0 C 4.2 km/h (1 Bft)
13.06.2010 18:00 16.0 C 94 % 1011.4 hPa 0.4 l/m 3.3 km/h (1 Bft) N-NW 0.00 h 22 W/m 15.1 C 16.0 C 5.5 km/h (1 Bft)
13.06.2010 19:00 16.4 C 94 % 1011.4 hPa 0.0 l/m 0.0 km/h (0 Bft) N 0.00 h 49 W/m 15.4 C 16.4 C 0.4 km/h (0 Bft)
13.06.2010 20:00 16.3 C 93 % 1011.4 hPa 0.0 l/m 0.6 km/h (0 Bft) NW 0.00 h 13 W/m 15.3 C 16.3 C 1.5 km/h (1 Bft)
13.06.2010 21:00 15.7 C 94 % 1011.3 hPa 0.2 l/m 1.1 km/h (1 Bft) NW 0.00 h 12 W/m 14.8 C 15.7 C 2.5 km/h (1 Bft)
13.06.2010 22:00 15.3 C 94 % 1011.8 hPa 0.2 l/m 1.0 km/h (0 Bft) W-NW 0.00 h 0 W/m 14.4 C 15.3 C 2.5 km/h (1 Bft)
13.06.2010 23:00 15.0 C 94 % 1011.6 hPa 0.0 l/m 0.7 km/h (0 Bft) W-SW 0.00 h 0 W/m 14.0 C 15.0 C 2.0 km/h (1 Bft)
Min-Datum _ 08.06.10 10.06.10 09.06.10 - 07.06.10 - - - 09.06.10 08.06.10 07.06.10
_ Min-Zeit 05:30 17:08 19:25 - 00:00 - - - 20:01 05:30 00:14
Minimum _ 11.8 C 30 % 1000.7 hPa - 0.0 km/h (0 Bft) - - - 9.2 C 11.9 C 0.0 km/h (0 Bft)
Max-Datum _ 10.06.10 09.06.10 07.06.10 08.06.10 08.06.10 - 07.06.10 13.06.10 10.06.10 10.06.10 08.06.10
_ Max-Zeit 16:55 06:34 09:04 15:13 15:10 - 08:11 12:58 13:09 16:55 15:11
Maximum _ 31.6 C 98 % 1015.0 hPa 9.8 l/m 41.7 km/h
W (6 Bft)
- 0.03 h 1132 W/m 21.2 C 31.6 C 57.4 km/h
N (7 Bft)
Durchschnitt _ 20.1 C 76 % 1008.2 hPa #15.6 l/m 2.8 km/h (1 Bft) W #46:00 h 315 W/m 15.3 C 20.1 C 5.1 km/h (1 Bft)
© Kaiko 2010